Time;durP1;ratioP1;P1;durP2;ratioP2;P2;SDS_P1;SDS_P2;PMS_P1;PMS_P2;Temp;Humidity;BMP_temperature;BMP_pressure;BME280_temperature;BME280_humidity;BME280_pressure;Samples;Min_cycle;Max_cycle;Signal;HPM_P1;HPM_P2
2023/10/27 00:00:57;;;;;;;10.40;4.93;;;10.40;99.90;;;;;;4912153;28;20261;-67
2023/10/27 00:03:23;;;;;;;12.23;6.20;;;10.40;99.90;;;;;;4911455;28;20275;-66
2023/10/27 00:05:49;;;;;;;14.00;7.00;;;10.40;99.90;;;;;;4912197;28;20203;-67
2023/10/27 00:08:14;;;;;;;11.80;5.67;;;10.40;99.90;;;;;;4911267;28;20234;-66
2023/10/27 00:10:40;;;;;;;13.80;5.87;;;10.30;99.90;;;;;;4912025;28;20214;-66
2023/10/27 00:13:06;;;;;;;13.57;6.30;;;10.40;99.90;;;;;;4910027;28;20199;-66
2023/10/27 00:15:31;;;;;;;14.17;5.63;;;10.40;99.90;;;;;;4911583;28;20306;-67
2023/10/27 00:17:58;;;;;;;12.90;5.90;;;10.40;99.90;;;;;;4911908;28;20281;-65
2023/10/27 00:20:24;;;;;;;16.03;6.03;;;10.40;99.90;;;;;;4911607;28;20234;-67
2023/10/27 00:22:49;;;;;;;16.13;6.00;;;10.40;99.90;;;;;;4944455;28;20218;-67
2023/10/27 00:25:15;;;;;;;21.67;6.03;;;10.40;99.90;;;;;;4903421;28;20196;-67
2023/10/27 00:27:41;;;;;;;14.00;5.33;;;10.40;99.90;;;;;;4904130;28;20658;-66
2023/10/27 00:30:08;;;;;;;17.23;5.60;;;10.40;99.90;;;;;;4911572;28;20180;-66
2023/10/27 00:32:33;;;;;;;12.93;5.60;;;10.40;99.90;;;;;;4911638;28;20176;-67
2023/10/27 00:34:59;;;;;;;15.30;6.53;;;10.40;99.90;;;;;;4911076;28;20302;-65
2023/10/27 00:37:24;;;;;;;14.87;6.07;;;10.40;99.90;;;;;;4903964;28;20291;-66
2023/10/27 00:39:50;;;;;;;12.53;6.03;;;10.40;99.90;;;;;;4910316;28;20688;-66
2023/10/27 00:42:15;;;;;;;10.93;5.97;;;10.40;99.90;;;;;;4911069;28;20650;-66
2023/10/27 00:44:41;;;;;;;16.93;6.13;;;10.40;99.90;;;;;;4910978;28;20186;-65
2023/10/27 00:47:08;;;;;;;16.27;6.57;;;10.40;99.90;;;;;;4911395;28;20266;-65
2023/10/27 00:49:34;;;;;;;12.90;6.47;;;10.40;99.90;;;;;;4911336;28;20299;-67
2023/10/27 00:52:00;;;;;;;14.07;6.20;;;10.40;99.90;;;;;;4911207;28;20188;-66
2023/10/27 00:54:27;;;;;;;17.73;7.50;;;10.40;99.90;;;;;;4910709;28;20192;-66
2023/10/27 00:56:54;;;;;;;16.23;6.67;;;10.40;99.90;;;;;;4910970;28;20294;-65
2023/10/27 00:59:20;;;;;;;13.20;6.63;;;10.40;99.90;;;;;;4911123;28;20212;-66
2023/10/27 01:01:45;;;;;;;14.10;6.33;;;10.40;99.90;;;;;;4911312;28;20560;-66
2023/10/27 01:04:11;;;;;;;15.53;6.87;;;10.40;99.90;;;;;;4910410;28;20203;-66
2023/10/27 01:06:37;;;;;;;14.63;7.03;;;10.40;99.90;;;;;;4911472;28;20549;-65
2023/10/27 01:09:02;;;;;;;13.93;7.17;;;10.40;99.90;;;;;;4911087;28;20223;-65
2023/10/27 01:11:28;;;;;;;13.73;6.63;;;10.40;99.90;;;;;;4911102;28;20198;-66
2023/10/27 01:13:54;;;;;;;18.93;6.60;;;10.40;99.90;;;;;;4910589;28;20222;-67
2023/10/27 01:16:21;;;;;;;14.53;6.87;;;10.30;99.90;;;;;;4910784;28;20302;-66
2023/10/27 01:18:47;;;;;;;16.60;7.63;;;10.30;99.90;;;;;;4911136;28;20208;-66
2023/10/27 01:21:13;;;;;;;17.40;7.73;;;10.30;99.90;;;;;;4913979;28;20187;-66
2023/10/27 01:23:38;;;;;;;16.50;7.97;;;10.30;99.90;;;;;;4913887;28;20188;-66
2023/10/27 01:26:04;;;;;;;16.87;7.57;;;10.30;99.90;;;;;;4905043;28;20661;-65
2023/10/27 01:28:31;;;;;;;17.30;7.57;;;10.30;99.90;;;;;;4910589;28;20574;-66
2023/10/27 01:30:57;;;;;;;17.43;8.03;;;10.30;99.90;;;;;;4910724;28;20560;-65
2023/10/27 01:33:23;;;;;;;17.57;7.80;;;10.30;99.90;;;;;;4913433;28;20188;-67
2023/10/27 01:35:50;;;;;;;17.30;7.73;;;10.30;99.90;;;;;;4914217;28;20208;-66
2023/10/27 01:38:16;;;;;;;15.87;7.60;;;10.30;99.90;;;;;;4906216;28;20204;-65
2023/10/27 01:40:41;;;;;;;16.63;6.63;;;10.30;99.90;;;;;;4914114;28;20279;-65
2023/10/27 01:43:07;;;;;;;14.53;6.37;;;10.30;99.90;;;;;;4913596;28;20195;-67
2023/10/27 01:45:32;;;;;;;13.07;6.07;;;10.30;99.90;;;;;;4914191;28;20188;-67
2023/10/27 01:47:58;;;;;;;17.03;6.07;;;10.30;99.90;;;;;;4914003;28;20215;-66
2023/10/27 01:50:24;;;;;;;14.70;6.20;;;10.30;99.90;;;;;;4913694;28;20669;-67
2023/10/27 01:52:49;;;;;;;11.30;5.67;;;10.30;99.90;;;;;;4913935;28;20195;-67
2023/10/27 01:55:15;;;;;;;11.13;5.40;;;10.30;99.90;;;;;;4913155;28;20203;-66
2023/10/27 01:57:40;;;;;;;13.00;5.60;;;10.30;99.90;;;;;;4913939;28;20229;-66
2023/10/27 02:00:07;;;;;;;14.20;5.97;;;10.30;99.90;;;;;;4913844;28;20191;-66
2023/10/27 02:02:34;;;;;;;13.80;6.40;;;10.30;99.90;;;;;;4913511;28;20180;-67
2023/10/27 02:05:01;;;;;;;14.27;5.97;;;10.30;99.90;;;;;;4913472;28;20551;-67
2023/10/27 02:07:27;;;;;;;15.00;5.87;;;10.30;99.90;;;;;;4906318;28;20203;-67
2023/10/27 02:09:52;;;;;;;12.73;5.73;;;10.20;99.90;;;;;;4913644;28;20578;-67
2023/10/27 02:12:18;;;;;;;13.57;5.77;;;10.10;99.90;;;;;;4912532;28;20196;-66
2023/10/27 02:14:43;;;;;;;13.17;5.70;;;10.10;99.90;;;;;;4911887;28;20196;-66
2023/10/27 02:17:11;;;;;;;16.37;5.97;;;10.10;99.90;;;;;;4913510;28;20220;-66
2023/10/27 02:19:36;;;;;;;11.73;6.07;;;10.00;99.90;;;;;;4913559;28;20195;-66
2023/10/27 02:22:02;;;;;;;10.03;5.17;;;10.00;99.90;;;;;;4913490;28;20198;-66
2023/10/27 02:24:28;;;;;;;11.07;5.03;;;10.00;99.90;;;;;;4912859;28;20187;-66
2023/10/27 02:26:54;;;;;;;14.87;5.33;;;9.90;99.90;;;;;;4913576;28;20215;-67
2023/10/27 02:29:20;;;;;;;12.53;4.97;;;9.90;99.90;;;;;;4913217;28;20230;-67
2023/10/27 02:31:45;;;;;;;11.17;5.13;;;9.90;99.90;;;;;;4912941;28;20192;-66
2023/10/27 02:34:11;;;;;;;16.60;5.10;;;9.90;99.90;;;;;;4912715;28;20555;-66
2023/10/27 02:36:37;;;;;;;9.90;4.97;;;9.90;99.90;;;;;;4913307;28;20207;-66
2023/10/27 02:39:02;;;;;;;8.53;4.97;;;9.90;99.90;;;;;;4913137;28;20215;-65
2023/10/27 02:41:28;;;;;;;14.33;5.20;;;9.80;99.90;;;;;;4913228;28;20180;-67
2023/10/27 02:43:54;;;;;;;11.10;5.23;;;9.80;99.90;;;;;;4912645;28;20231;-67
2023/10/27 02:46:19;;;;;;;14.10;4.93;;;9.80;99.90;;;;;;4904065;28;20237;-66
2023/10/27 02:48:45;;;;;;;10.90;4.67;;;9.70;99.90;;;;;;4913136;28;20227;-67
2023/10/27 02:51:15;;;;;;;18.27;5.73;;;9.70;99.90;;;;;;4913065;28;20657;-66
2023/10/27 02:53:40;;;;;;;10.23;4.93;;;9.60;99.90;;;;;;4911031;28;20238;-67
2023/10/27 02:56:07;;;;;;;9.10;4.80;;;9.70;99.90;;;;;;4912879;28;20619;-66
2023/10/27 02:58:33;;;;;;;10.17;5.20;;;9.60;99.90;;;;;;4911640;28;20213;-65
2023/10/27 03:00:59;;;;;;;11.33;4.60;;;9.60;99.90;;;;;;4913087;28;20664;-66
2023/10/27 03:03:27;;;;;;;12.77;4.57;;;9.70;99.90;;;;;;4912238;28;20218;-66
2023/10/27 03:05:53;;;;;;;11.03;4.60;;;9.60;99.90;;;;;;4912865;28;20265;-66
2023/10/27 03:08:19;;;;;;;12.63;5.10;;;9.60;99.90;;;;;;4913001;28;20495;-66
2023/10/27 03:10:44;;;;;;;13.30;5.20;;;9.70;99.90;;;;;;4911624;28;20306;-66
2023/10/27 03:13:10;;;;;;;8.53;4.67;;;9.70;99.90;;;;;;4912045;28;20195;-65
2023/10/27 03:15:35;;;;;;;11.30;5.20;;;9.60;99.90;;;;;;4912756;28;20218;-66
2023/10/27 03:18:02;;;;;;;11.63;5.50;;;9.60;99.90;;;;;;4912558;28;20231;-66
2023/10/27 03:20:28;;;;;;;12.13;5.57;;;9.60;99.90;;;;;;4912793;28;20184;-65
2023/10/27 03:22:54;;;;;;;11.57;4.70;;;9.60;99.90;;;;;;4912474;28;20191;-65
2023/10/27 03:25:19;;;;;;;14.13;5.40;;;9.60;99.90;;;;;;4912001;28;20198;-66
2023/10/27 03:27:45;;;;;;;14.00;5.63;;;9.60;99.90;;;;;;4912464;28;20192;-66
2023/10/27 03:30:11;;;;;;;11.07;5.23;;;9.50;99.90;;;;;;4911153;28;20188;-67
2023/10/27 03:32:37;;;;;;;16.53;5.47;;;9.50;99.90;;;;;;4898685;28;20189;-66
2023/10/27 03:35:03;;;;;;;9.23;5.03;;;9.50;99.90;;;;;;4908910;28;20588;-65
2023/10/27 03:37:28;;;;;;;10.23;5.43;;;9.50;99.90;;;;;;4912272;28;20705;-66
2023/10/27 03:39:54;;;;;;;14.83;5.40;;;9.40;99.90;;;;;;4912351;28;20208;-66
2023/10/27 03:42:20;;;;;;;12.20;5.93;;;9.40;99.90;;;;;;4911296;28;20218;-65
2023/10/27 03:44:45;;;;;;;14.13;5.70;;;9.40;99.90;;;;;;4911817;28;20190;-67
2023/10/27 03:47:11;;;;;;;15.50;5.67;;;9.40;99.90;;;;;;4910905;28;20188;-67
2023/10/27 03:49:36;;;;;;;11.90;6.13;;;9.30;99.90;;;;;;4931557;28;20340;-66
2023/10/27 03:52:02;;;;;;;11.73;5.07;;;9.30;99.90;;;;;;4925285;28;20191;-67
2023/10/27 03:54:28;;;;;;;13.80;5.97;;;9.30;99.90;;;;;;4910696;28;20194;-65
2023/10/27 03:56:55;;;;;;;9.30;5.13;;;9.20;99.90;;;;;;4912216;28;20215;-65
2023/10/27 03:59:21;;;;;;;28.40;14.30;;;9.20;99.90;;;;;;4912070;28;20256;-66
2023/10/27 04:01:46;;;;;;;22.83;10.30;;;9.20;99.90;;;;;;4912307;28;20192;-65
2023/10/27 04:04:12;;;;;;;16.47;8.40;;;9.10;99.90;;;;;;4911452;28;20210;-66
2023/10/27 04:06:38;;;;;;;12.30;5.93;;;9.20;99.90;;;;;;4912047;28;20195;-66
2023/10/27 04:09:04;;;;;;;10.47;4.83;;;9.10;99.90;;;;;;4912003;28;20204;-66
2023/10/27 04:11:29;;;;;;;8.57;4.43;;;9.10;99.90;;;;;;4912024;28;20623;-67
2023/10/27 04:13:55;;;;;;;8.80;4.70;;;9.10;99.90;;;;;;4911252;28;20318;-65
2023/10/27 04:16:20;;;;;;;10.17;5.23;;;9.20;99.90;;;;;;4911639;28;20219;-67
2023/10/27 04:18:46;;;;;;;11.47;5.60;;;9.10;99.90;;;;;;4911801;28;20700;-66
2023/10/27 04:21:12;;;;;;;24.17;14.30;;;9.20;99.90;;;;;;4911488;28;20196;-67
2023/10/27 04:23:38;;;;;;;86.53;52.07;;;9.10;99.90;;;;;;4911076;28;20267;-66
2023/10/27 04:26:05;;;;;;;68.50;36.80;;;9.20;99.90;;;;;;4911671;28;20618;-66
2023/10/27 04:28:32;;;;;;;15.97;9.77;;;9.30;99.90;;;;;;4910394;28;20490;-66
2023/10/27 04:30:57;;;;;;;20.87;8.83;;;9.30;99.90;;;;;;4911902;28;20671;-66
2023/10/27 04:33:24;;;;;;;13.13;5.53;;;9.30;99.90;;;;;;4911025;28;20192;-66
2023/10/27 04:35:50;;;;;;;15.93;5.43;;;9.30;99.90;;;;;;4911514;28;20203;-66
2023/10/27 04:38:16;;;;;;;15.63;4.80;;;9.30;99.90;;;;;;4911575;28;20291;-66
2023/10/27 04:40:41;;;;;;;9.53;4.43;;;9.30;99.90;;;;;;4911602;28;20683;-66
2023/10/27 04:43:07;;;;;;;11.23;5.00;;;9.30;99.90;;;;;;4909691;28;20745;-65
2023/10/27 04:45:32;;;;;;;11.90;5.40;;;9.20;99.90;;;;;;4911751;28;20588;-65
2023/10/27 04:47:58;;;;;;;12.57;4.73;;;9.20;99.90;;;;;;4911372;28;20685;-68
2023/10/27 04:50:24;;;;;;;13.10;5.30;;;9.30;99.90;;;;;;4911281;28;20561;-66
2023/10/27 04:52:50;;;;;;;11.80;5.30;;;9.30;99.90;;;;;;4911458;28;20238;-66
2023/10/27 04:55:15;;;;;;;10.00;5.00;;;9.30;99.90;;;;;;4910618;28;20191;-65
2023/10/27 04:57:41;;;;;;;15.80;6.13;;;9.30;99.90;;;;;;4906319;28;20184;-64
2023/10/27 05:00:11;;;;;;;16.57;6.30;;;9.30;99.90;;;;;;4911138;28;20195;-64
2023/10/27 05:02:37;;;;;;;17.27;6.13;;;9.30;99.90;;;;;;4911328;28;20561;-65
2023/10/27 05:05:03;;;;;;;12.27;5.70;;;9.40;99.90;;;;;;4909127;28;20188;-65
2023/10/27 05:07:28;;;;;;;12.17;5.80;;;9.40;99.90;;;;;;4910898;28;20198;-65
2023/10/27 05:09:54;;;;;;;13.87;6.80;;;9.40;99.90;;;;;;4903307;28;20204;-64
2023/10/27 05:12:20;;;;;;;16.37;6.13;;;9.40;99.90;;;;;;4910287;28;20192;-65
2023/10/27 05:14:45;;;;;;;14.37;6.80;;;9.40;99.90;;;;;;4910441;28;20202;-67
2023/10/27 05:17:11;;;;;;;15.63;6.43;;;9.40;99.90;;;;;;4911081;28;20216;-66
2023/10/27 05:19:36;;;;;;;16.27;7.63;;;9.40;99.90;;;;;;4910946;28;20199;-65
2023/10/27 05:22:05;;;;;;;17.83;8.10;;;9.40;99.90;;;;;;4910932;28;20188;-64
2023/10/27 05:24:32;;;;;;;16.53;8.47;;;9.50;99.90;;;;;;4903095;28;20645;-66
2023/10/27 05:26:57;;;;;;;19.53;8.10;;;9.50;99.90;;;;;;4911147;28;20192;-64
2023/10/27 05:29:25;;;;;;;15.63;7.77;;;9.50;99.90;;;;;;4910735;28;20214;-66
2023/10/27 05:31:51;;;;;;;15.20;6.73;;;9.50;99.90;;;;;;4909772;28;20192;-64
2023/10/27 05:34:17;;;;;;;13.87;6.23;;;9.50;99.90;;;;;;4910305;28;20246;-67
2023/10/27 05:36:42;;;;;;;22.67;7.73;;;9.50;99.90;;;;;;4910811;28;20208;-65
2023/10/27 05:39:08;;;;;;;14.67;7.30;;;9.50;99.90;;;;;;4910721;28;20559;-65
2023/10/27 05:41:33;;;;;;;21.73;7.90;;;9.50;99.90;;;;;;4910816;28;20180;-66
2023/10/27 05:44:02;;;;;;;16.77;7.73;;;9.50;99.90;;;;;;4910275;28;20188;-68
2023/10/27 05:46:28;;;;;;;16.93;10.10;;;9.50;99.90;;;;;;4910182;28;20211;-67
2023/10/27 05:49:00;;;;;;;13.93;8.53;;;9.60;99.90;;;;;;4938981;28;20603;-66
2023/10/27 05:51:25;;;;;;;15.57;9.03;;;9.60;99.90;;;;;;4910751;28;20180;-66
2023/10/27 05:53:51;;;;;;;16.10;7.07;;;9.60;99.90;;;;;;4909987;28;20195;-67
2023/10/27 05:56:16;;;;;;;12.40;6.50;;;9.60;99.90;;;;;;4910560;28;20784;-65
2023/10/27 05:58:42;;;;;;;14.67;5.90;;;9.60;99.90;;;;;;4910561;28;20708;-66
2023/10/27 06:01:07;;;;;;;12.63;6.23;;;9.60;99.90;;;;;;4910478;28;20188;-66
2023/10/27 06:03:33;;;;;;;16.97;6.90;;;9.60;99.90;;;;;;4910098;28;20990;-67
2023/10/27 06:05:59;;;;;;;11.23;6.10;;;9.60;99.90;;;;;;4911893;28;20665;-68
2023/10/27 06:08:24;;;;;;;16.00;6.20;;;9.60;99.90;;;;;;4913518;28;20293;-69
2023/10/27 06:10:50;;;;;;;11.90;5.90;;;9.60;99.90;;;;;;4913814;28;20195;-67
2023/10/27 06:13:15;;;;;;;16.57;6.73;;;9.70;99.90;;;;;;4911771;28;20195;-68
2023/10/27 06:15:41;;;;;;;12.77;6.33;;;9.70;99.90;;;;;;4913507;28;20219;-66
2023/10/27 06:18:07;;;;;;;15.73;6.70;;;9.70;99.90;;;;;;4913426;28;20200;-66
2023/10/27 06:20:32;;;;;;;16.43;7.03;;;9.70;99.90;;;;;;4913520;28;20223;-67
2023/10/27 06:22:58;;;;;;;20.07;7.77;;;9.70;99.90;;;;;;4913157;28;20188;-67
2023/10/27 06:25:25;;;;;;;23.63;9.93;;;9.70;99.90;;;;;;4911715;28;20184;-66
2023/10/27 06:27:52;;;;;;;22.03;10.30;;;9.70;99.90;;;;;;4913501;28;20184;-66
2023/10/27 06:30:20;;;;;;;17.03;9.00;;;9.70;99.90;;;;;;4905511;28;20181;-67
2023/10/27 06:32:48;;;;;;;20.07;8.73;;;9.80;99.90;;;;;;4913796;28;20180;-67
2023/10/27 06:35:14;;;;;;;22.97;10.17;;;9.80;99.90;;;;;;4913005;28;20180;-67
2023/10/27 06:37:40;;;;;;;19.40;8.00;;;9.70;99.90;;;;;;4912886;28;20218;-67
2023/10/27 06:40:08;;;;;;;15.10;8.20;;;9.80;99.90;;;;;;4912418;28;20191;-66
2023/10/27 06:42:33;;;;;;;19.77;8.63;;;9.80;99.90;;;;;;4912546;28;20238;-68
2023/10/27 06:45:00;;;;;;;20.43;7.80;;;9.80;99.90;;;;;;4910938;28;20184;-68
2023/10/27 06:47:27;;;;;;;16.77;8.00;;;9.80;99.90;;;;;;4912698;28;20176;-68
2023/10/27 06:49:52;;;;;;;16.67;7.40;;;9.80;99.90;;;;;;4904993;28;20216;-68
2023/10/27 06:52:18;;;;;;;18.70;7.47;;;9.90;99.90;;;;;;4912250;28;20680;-68
2023/10/27 06:54:43;;;;;;;17.63;7.67;;;9.90;99.90;;;;;;4912062;28;20187;-69
2023/10/27 06:57:10;;;;;;;19.73;7.83;;;9.90;99.90;;;;;;4904663;28;20212;-69
2023/10/27 06:59:36;;;;;;;21.27;7.47;;;10.00;99.90;;;;;;4912356;28;20208;-68
2023/10/27 07:02:03;;;;;;;23.77;6.93;;;10.00;99.90;;;;;;4912760;28;20241;-69
2023/10/27 07:04:28;;;;;;;15.03;7.37;;;10.00;99.90;;;;;;4911899;28;20188;-69
2023/10/27 07:06:54;;;;;;;18.77;7.60;;;10.00;99.90;;;;;;4912201;28;20211;-69
2023/10/27 07:09:20;;;;;;;15.87;7.23;;;10.00;99.90;;;;;;4912125;28;20208;-70
2023/10/27 07:11:45;;;;;;;16.27;6.83;;;10.00;99.90;;;;;;4912263;28;20306;-69
2023/10/27 07:14:14;;;;;;;15.20;6.77;;;10.00;99.90;;;;;;4910774;28;20192;-69
2023/10/27 07:16:41;;;;;;;13.23;6.00;;;10.10;99.90;;;;;;4905924;28;20222;-69
2023/10/27 07:19:06;;;;;;;15.17;5.50;;;10.10;99.90;;;;;;4912062;28;20199;-69
2023/10/27 07:21:34;;;;;;;15.13;5.90;;;10.10;99.90;;;;;;4908467;28;20304;-69
2023/10/27 07:23:59;;;;;;;10.70;5.57;;;10.10;99.90;;;;;;4900238;28;20188;-68
2023/10/27 07:26:25;;;;;;;10.20;5.67;;;10.10;99.90;;;;;;4911367;28;20192;-68
2023/10/27 07:28:50;;;;;;;10.73;5.57;;;10.20;99.90;;;;;;4912095;28;20215;-68
2023/10/27 07:31:16;;;;;;;13.50;6.27;;;10.20;99.90;;;;;;4912168;28;20188;-69
2023/10/27 07:33:43;;;;;;;10.83;5.67;;;10.20;99.90;;;;;;4911383;28;20199;-68
2023/10/27 07:36:10;;;;;;;12.07;5.23;;;10.20;99.90;;;;;;4911527;28;20216;-69
2023/10/27 07:38:36;;;;;;;11.70;5.97;;;10.20;99.90;;;;;;4911467;28;20703;-68
2023/10/27 07:41:03;;;;;;;11.23;5.67;;;10.20;99.90;;;;;;4911728;28;20262;-68
2023/10/27 07:43:29;;;;;;;12.17;5.50;;;10.20;99.90;;;;;;4911207;28;20184;-69
2023/10/27 07:45:55;;;;;;;11.03;5.90;;;10.30;99.90;;;;;;4911807;28;20188;-68
2023/10/27 07:48:21;;;;;;;16.50;5.90;;;10.30;99.90;;;;;;4911343;28;20247;-69
2023/10/27 07:50:47;;;;;;;11.57;5.20;;;10.30;99.90;;;;;;4905106;28;20573;-69
2023/10/27 07:53:13;;;;;;;9.60;5.00;;;10.30;99.90;;;;;;4909123;28;20207;-68
2023/10/27 07:55:38;;;;;;;14.27;5.27;;;10.30;99.90;;;;;;4902339;28;20188;-69
2023/10/27 07:58:04;;;;;;;6.53;4.07;;;10.30;99.90;;;;;;4911861;28;20912;-69
2023/10/27 08:00:31;;;;;;;7.93;4.80;;;10.30;99.90;;;;;;4896268;28;20208;-68
2023/10/27 08:02:57;;;;;;;7.73;4.33;;;10.30;99.90;;;;;;4911451;28;20223;-71
2023/10/27 08:05:23;;;;;;;7.97;4.30;;;10.40;99.90;;;;;;4942436;28;20238;-69
2023/10/27 08:07:48;;;;;;;12.53;6.10;;;10.40;99.90;;;;;;4911598;28;20684;-69
2023/10/27 08:10:14;;;;;;;10.40;4.60;;;10.40;99.90;;;;;;4911805;28;20267;-68
2023/10/27 08:12:40;;;;;;;10.10;4.97;;;10.40;99.90;;;;;;4911422;28;20259;-68
2023/10/27 08:15:06;;;;;;;10.03;4.87;;;10.40;99.90;;;;;;4910705;28;20190;-68
2023/10/27 08:17:36;;;;;;;11.97;6.10;;;10.40;99.90;;;;;;4910233;28;20681;-68
2023/10/27 08:20:02;;;;;;;8.33;4.87;;;10.50;99.90;;;;;;4911674;28;20195;-67
2023/10/27 08:22:28;;;;;;;7.80;4.63;;;10.50;99.90;;;;;;4903347;28;20180;-68
2023/10/27 08:24:53;;;;;;;9.30;4.90;;;10.50;99.90;;;;;;4902911;28;20272;-66
2023/10/27 08:27:19;;;;;;;10.83;4.70;;;10.50;99.90;;;;;;4909373;28;20242;-67
2023/10/27 08:29:45;;;;;;;11.37;4.50;;;10.50;99.90;;;;;;4905106;28;20262;-67
2023/10/27 08:32:14;;;;;;;16.70;4.87;;;10.60;99.90;;;;;;4911059;28;20203;-64
2023/10/27 08:34:39;;;;;;;6.63;4.20;;;10.60;99.90;;;;;;4910870;28;20199;-69
2023/10/27 08:37:05;;;;;;;10.57;4.53;;;10.60;99.90;;;;;;4909815;28;20307;-66
2023/10/27 08:39:34;;;;;;;10.47;4.33;;;10.60;99.90;;;;;;4911238;28;20211;-69
2023/10/27 08:42:00;;;;;;;13.10;4.43;;;10.60;99.90;;;;;;4944043;28;20184;-63
2023/10/27 08:44:27;;;;;;;9.23;3.70;;;10.60;99.90;;;;;;4910512;28;20180;-62
2023/10/27 08:46:53;;;;;;;7.27;3.53;;;10.60;99.90;;;;;;4910917;28;20192;-65
2023/10/27 08:49:19;;;;;;;9.50;3.80;;;10.70;99.90;;;;;;4902860;28;20576;-65
2023/10/27 08:51:44;;;;;;;6.63;3.47;;;10.70;99.90;;;;;;4911040;28;20576;-65
2023/10/27 08:54:10;;;;;;;10.83;4.37;;;10.70;99.90;;;;;;4902406;28;20200;-66
2023/10/27 08:56:37;;;;;;;7.80;4.10;;;10.60;99.90;;;;;;4910731;28;20216;-63
2023/10/27 08:59:06;;;;;;;10.23;4.13;;;10.70;99.90;;;;;;4910798;28;20228;-67
2023/10/27 09:01:32;;;;;;;6.53;3.97;;;10.70;99.90;;;;;;4910873;28;20187;-65
2023/10/27 09:04:08;;;;;;;7.97;4.10;;;10.80;99.90;;;;;;4910260;28;20199;-67
2023/10/27 09:06:37;;;;;;;7.03;3.63;;;10.90;99.90;;;;;;4906990;28;20223;-65
2023/10/27 09:09:05;;;;;;;37.97;14.37;;;10.90;99.90;;;;;;4907135;28;20218;-66
2023/10/27 09:11:42;;;;;;;11.90;5.10;;;11.00;99.90;;;;;;4936120;28;20187;-64
2023/10/27 09:14:22;;;;;;;12.07;4.70;;;11.00;99.90;;;;;;4909977;28;20249;-63
2023/10/27 09:16:49;;;;;;;20.00;5.43;;;11.00;99.90;;;;;;4910525;28;20212;-64
2023/10/27 09:19:19;;;;;;;10.87;4.93;;;10.90;99.90;;;;;;4910444;28;20204;-64
2023/10/27 09:21:45;;;;;;;10.77;4.47;;;10.90;99.90;;;;;;4905690;28;20200;-66
2023/10/27 09:24:19;;;;;;;9.07;4.10;;;10.90;99.90;;;;;;4907242;28;20192;-63
2023/10/27 09:26:46;;;;;;;8.37;3.60;;;10.90;99.90;;;;;;4910557;28;20202;-65
2023/10/27 09:29:12;;;;;;;6.97;4.07;;;10.90;99.90;;;;;;4910150;28;20243;-65
2023/10/27 09:31:38;;;;;;;8.37;4.23;;;10.90;99.90;;;;;;4910337;28;20188;-63
2023/10/27 09:34:19;;;;;;;6.57;3.87;;;11.00;99.90;;;;;;4910202;28;20240;-63
2023/10/27 09:36:46;;;;;;;5.83;3.80;;;11.10;99.90;;;;;;4904517;28;20222;-64
2023/10/27 09:39:16;;;;;;;7.10;3.83;;;11.10;99.90;;;;;;4910171;28;20220;-64
2023/10/27 09:41:45;;;;;;;6.73;3.13;;;11.20;99.90;;;;;;4912439;28;20192;-62
2023/10/27 09:44:14;;;;;;;6.03;2.90;;;11.30;99.90;;;;;;4912786;28;20225;-66
2023/10/27 09:46:42;;;;;;;4.80;2.60;;;11.30;99.90;;;;;;4913477;28;20254;-63
2023/10/27 09:49:11;;;;;;;6.68;3.30;;;11.40;99.90;;;;;;4912241;28;20446;-65
2023/10/27 09:51:40;;;;;;;23.85;4.28;;;11.50;99.90;;;;;;4912242;28;20434;-65
2023/10/27 09:54:07;;;;;;;5.50;2.93;;;11.60;99.90;;;;;;4912657;28;20199;-65
2023/10/27 09:56:33;;;;;;;6.23;3.30;;;11.60;99.90;;;;;;4913134;28;20226;-65
2023/10/27 09:59:00;;;;;;;4.50;2.60;;;11.60;99.90;;;;;;4913333;28;20244;-65
2023/10/27 10:01:26;;;;;;;6.13;2.90;;;11.70;99.90;;;;;;4905374;28;20202;-65
2023/10/27 10:03:52;;;;;;;3.93;2.10;;;11.70;99.90;;;;;;4912993;28;20254;-65
2023/10/27 10:06:23;;;;;;;4.80;2.00;;;11.80;99.90;;;;;;4913179;28;20203;-64
2023/10/27 10:09:09;;;;;;;6.80;2.67;;;11.80;99.90;;;;;;4913232;28;20220;-65
2023/10/27 10:11:55;;;;;;;3.57;2.40;;;11.80;99.90;;;;;;4913531;28;20192;-64
2023/10/27 10:14:36;;;;;;;6.93;2.90;;;11.60;99.90;;;;;;4910762;28;20198;-65
2023/10/27 10:17:03;;;;;;;6.37;3.37;;;11.40;99.90;;;;;;4909144;28;20287;-64
2023/10/27 10:19:51;;;;;;;4.93;2.70;;;11.40;99.90;;;;;;4913421;28;20784;-65
2023/10/27 10:22:38;;;;;;;8.20;2.93;;;11.60;99.90;;;;;;4913179;28;20195;-65
2023/10/27 10:25:18;;;;;;;7.20;3.07;;;11.70;99.90;;;;;;4912976;28;20188;-64
2023/10/27 10:28:14;;;;;;;8.57;3.23;;;11.80;99.90;;;;;;4946019;28;20196;-65
2023/10/27 10:30:41;;;;;;;11.43;3.07;;;11.80;99.90;;;;;;4926663;28;20222;-65
2023/10/27 10:33:16;;;;;;;8.03;2.53;;;11.80;99.90;;;;;;4912819;28;20192;-64
2023/10/27 10:35:43;;;;;;;3.50;2.40;;;11.80;99.90;;;;;;4913208;28;20187;-64
2023/10/27 10:38:26;;;;;;;5.00;1.60;;;11.80;99.90;;;;;;4904574;28;20241;-64
2023/10/27 10:40:58;;;;;;;39.53;14.80;;;11.80;99.90;;;;;;4912781;28;20199;-64
2023/10/27 10:43:29;;;;;;;5.23;1.47;;;11.80;99.90;;;;;;4912019;28;20661;-64
2023/10/27 10:45:56;;;;;;;1.97;0.93;;;11.90;99.90;;;;;;4905121;28;20262;-64
2023/10/27 10:48:27;;;;;;;1.60;0.90;;;11.90;99.90;;;;;;4945317;28;20224;-64
2023/10/27 10:50:55;;;;;;;1.37;0.80;;;12.00;99.90;;;;;;4912273;28;20715;-64
2023/10/27 10:53:24;;;;;;;2.60;1.00;;;12.20;99.90;;;;;;4944891;28;20558;-64
2023/10/27 10:55:51;;;;;;;3.20;1.07;;;12.30;99.90;;;;;;4912864;28;20207;-65
2023/10/27 10:58:27;;;;;;;4.20;0.80;;;12.30;99.90;;;;;;4944263;28;20230;-65
2023/10/27 11:00:55;;;;;;;1.70;0.93;;;12.30;99.90;;;;;;4907605;28;20577;-64
2023/10/27 11:03:23;;;;;;;3.13;0.63;;;12.20;99.90;;;;;;4911754;28;20184;-65
2023/10/27 11:05:54;;;;;;;1.93;0.80;;;12.20;99.90;;;;;;4912605;28;20191;-65
2023/10/27 11:08:31;;;;;;;0.60;0.30;;;12.20;99.90;;;;;;4912188;28;20212;-64
2023/10/27 11:11:01;;;;;;;3.07;0.67;;;12.30;99.90;;;;;;4912375;28;20191;-64
2023/10/27 11:13:27;;;;;;;3.10;0.90;;;12.40;99.90;;;;;;4911369;28;20203;-65
2023/10/27 11:15:53;;;;;;;1.10;0.70;;;12.50;99.90;;;;;;4912155;28;20305;-64
2023/10/27 11:18:18;;;;;;;0.87;0.67;;;12.70;99.90;;;;;;4912012;28;20212;-64
2023/10/27 11:20:45;;;;;;;2.20;0.50;;;12.80;99.90;;;;;;4907474;28;20184;-64
2023/10/27 11:23:12;;;;;;;1.67;0.60;;;12.90;99.90;;;;;;4908565;28;20184;-64
2023/10/27 11:25:39;;;;;;;3.27;0.53;;;13.10;99.90;;;;;;4912218;28;20608;-64
2023/10/27 11:28:26;;;;;;;4.63;0.60;;;13.20;99.90;;;;;;4911872;28;20215;-64
2023/10/27 11:31:08;;;;;;;3.60;0.70;;;13.20;99.90;;;;;;4906904;28;20192;-65
2023/10/27 11:33:55;;;;;;;1.53;0.50;;;13.60;99.90;;;;;;4944322;28;20196;-63
2023/10/27 11:36:21;;;;;;;1.37;0.47;;;13.90;99.90;;;;;;4911705;28;20211;-65
2023/10/27 11:38:46;;;;;;;4.60;1.00;;;14.20;99.90;;;;;;4906581;28;20560;-64
2023/10/27 11:41:15;;;;;;;6.40;0.93;;;14.30;99.90;;;;;;4908835;28;20226;-65
2023/10/27 11:43:41;;;;;;;3.67;1.00;;;14.50;99.90;;;;;;4904701;28;20191;-65
2023/10/27 11:46:24;;;;;;;1.77;0.73;;;14.40;99.90;;;;;;4912025;28;20184;-65
2023/10/27 11:48:50;;;;;;;3.33;1.40;;;14.40;99.90;;;;;;4911475;28;20290;-66
2023/10/27 11:51:15;;;;;;;3.60;0.80;;;14.40;99.90;;;;;;4906220;28;20200;-66
2023/10/27 11:53:45;;;;;;;2.30;0.90;;;14.20;99.90;;;;;;4910674;28;20254;-66
2023/10/27 11:56:11;;;;;;;2.53;0.90;;;14.30;99.90;;;;;;4911688;28;20374;-65
2023/10/27 11:58:37;;;;;;;3.20;0.87;;;14.70;99.90;;;;;;4911670;28;20673;-65
2023/10/27 12:01:02;;;;;;;1.80;0.60;;;14.90;99.90;;;;;;4911892;28;20395;-66
2023/10/27 12:03:28;;;;;;;2.00;0.77;;;15.00;99.90;;;;;;4909978;28;20243;-65
2023/10/27 12:05:53;;;;;;;4.40;0.90;;;14.80;99.90;;;;;;4911486;28;20191;-66
2023/10/27 12:08:20;;;;;;;1.47;0.83;;;14.60;99.90;;;;;;4911139;28;20220;-65
2023/10/27 12:10:50;;;;;;;4.70;1.17;;;14.60;99.90;;;;;;4911471;28;20200;-66
2023/10/27 12:13:16;;;;;;;2.17;0.70;;;14.70;99.90;;;;;;4910696;28;20577;-65
2023/10/27 12:15:42;;;;;;;3.27;0.77;;;14.70;99.90;;;;;;4911321;28;20258;-65
2023/10/27 12:18:07;;;;;;;3.73;0.80;;;14.70;99.90;;;;;;4911472;28;20521;-64
2023/10/27 12:20:34;;;;;;;1.73;0.80;;;14.80;99.90;;;;;;4895788;28;20184;-65
2023/10/27 12:23:00;;;;;;;5.37;0.90;;;14.90;99.90;;;;;;4911089;28;20184;-64
2023/10/27 12:25:26;;;;;;;2.77;0.63;;;15.00;99.90;;;;;;4910795;28;20184;-65
2023/10/27 12:27:52;;;;;;;2.63;0.63;;;15.20;99.90;;;;;;4911158;28;20195;-65
2023/10/27 12:30:17;;;;;;;5.93;1.20;;;15.40;99.90;;;;;;4911072;28;20199;-65
2023/10/27 12:32:44;;;;;;;3.27;0.90;;;15.50;99.90;;;;;;4911055;28;20342;-65
2023/10/27 12:35:11;;;;;;;5.27;0.87;;;15.60;99.90;;;;;;4910526;28;20196;-64
2023/10/27 12:37:36;;;;;;;3.23;0.90;;;15.60;99.90;;;;;;4911043;28;20657;-64
2023/10/27 12:40:04;;;;;;;3.33;0.90;;;15.50;99.90;;;;;;4911181;28;20208;-64
2023/10/27 12:42:30;;;;;;;3.83;1.00;;;15.50;99.90;;;;;;4910933;28;20574;-65